createdAt,value
2022-10-06T00:01:11.720Z,99842.03
2022-10-06T00:03:40.305Z,99856.72
2022-10-06T00:06:09.165Z,99846.78
2022-10-06T00:08:39.260Z,99852.31
2022-10-06T00:11:08.895Z,99847.31
2022-10-06T00:13:36.978Z,99844.75
2022-10-06T00:16:17.539Z,99854.25
2022-10-06T00:18:45.315Z,99849.75
2022-10-06T00:21:12.998Z,99853.19
2022-10-06T00:23:40.638Z,99837.63
2022-10-06T00:26:17.274Z,99854.19
2022-10-06T00:28:47.765Z,99863.69
2022-10-06T00:31:16.305Z,99844.44
2022-10-06T00:33:44.025Z,99859.44
2022-10-06T00:36:11.715Z,99862.06
2022-10-06T00:38:46.470Z,99858.84
2022-10-06T00:41:16.324Z,99856.94
2022-10-06T00:43:55.261Z,99847.91
2022-10-06T00:46:52.453Z,99855.00
2022-10-06T00:49:35.535Z,99852.44
2022-10-06T00:52:07.273Z,99844.38
2022-10-06T00:54:36.279Z,99842.94
2022-10-06T00:57:05.226Z,99848.94
2022-10-06T00:59:33.383Z,99850.84
2022-10-06T01:02:07.694Z,99847.31
2022-10-06T01:04:38.416Z,99841.41
2022-10-06T01:07:07.158Z,99853.34
2022-10-06T01:09:35.500Z,99855.09
2022-10-06T01:12:07.350Z,99861.06
2022-10-06T01:14:37.709Z,99861.84
2022-10-06T01:17:16.882Z,99857.47
2022-10-06T01:19:44.335Z,99849.66
2022-10-06T01:22:15.467Z,99849.66
2022-10-06T01:24:46.557Z,99847.19
2022-10-06T01:27:16.202Z,99861.09
2022-10-06T01:29:43.994Z,99849.78
2022-10-06T01:32:11.753Z,99852.34
2022-10-06T01:34:39.343Z,99860.22
2022-10-06T01:37:06.859Z,99851.56
2022-10-06T01:39:34.780Z,99857.56
2022-10-06T01:42:02.343Z,99844.63
2022-10-06T01:44:29.819Z,99851.72
2022-10-06T01:46:57.308Z,99843.81
2022-10-06T01:49:24.707Z,99841.19
2022-10-06T01:51:52.196Z,99854.41
2022-10-06T01:54:19.567Z,99849.16
2022-10-06T01:56:47.104Z,99852.72
2022-10-06T01:59:14.683Z,99854.44
2022-10-06T02:01:42.561Z,99847.31
2022-10-06T02:04:10.118Z,99844.59
2022-10-06T02:06:37.687Z,99849.88
2022-10-06T02:09:05.145Z,99838.69
2022-10-06T02:11:33.578Z,99849.47
2022-10-06T02:14:02.861Z,99849.31
2022-10-06T02:16:31.420Z,99846.75
2022-10-06T02:18:58.887Z,99845.16
2022-10-06T02:21:26.371Z,99841.56
2022-10-06T02:23:53.971Z,99851.00
2022-10-06T02:26:21.422Z,99853.59
2022-10-06T02:28:50.803Z,99848.44
2022-10-06T02:31:22.422Z,99852.75
2022-10-06T02:33:51.699Z,99852.09
2022-10-06T02:36:20.013Z,99852.84
2022-10-06T02:38:47.587Z,99857.34
2022-10-06T02:41:17.605Z,99868.63
2022-10-06T02:43:46.609Z,99866.91
2022-10-06T02:46:15.263Z,99868.88
2022-10-06T02:48:49.115Z,99865.22
2022-10-06T02:51:18.714Z,99873.91
2022-10-06T02:53:48.271Z,99870.63
2022-10-06T02:56:20.067Z,99881.00
2022-10-06T02:58:48.167Z,99889.50
2022-10-06T03:01:24.441Z,99880.31
2022-10-06T03:03:53.895Z,99877.75
2022-10-06T03:06:31.578Z,99887.31
2022-10-06T03:09:12.875Z,99877.75
2022-10-06T03:11:43.639Z,99874.13
2022-10-06T03:14:21.321Z,99879.34
2022-10-06T03:16:54.984Z,99879.44
2022-10-06T03:19:29.252Z,99881.13
2022-10-06T03:21:56.843Z,99866.97
2022-10-06T03:24:38.755Z,99870.63
2022-10-06T03:27:06.511Z,99874.06
2022-10-06T03:29:35.188Z,99878.47
2022-10-06T03:32:03.989Z,99863.75
2022-10-06T03:34:32.038Z,99869.09
2022-10-06T03:37:02.323Z,99877.59
2022-10-06T03:39:29.835Z,99874.16
2022-10-06T03:41:57.307Z,99862.97
2022-10-06T03:44:24.796Z,99869.09
2022-10-06T03:46:52.739Z,99873.25
2022-10-06T03:49:20.369Z,99865.59
2022-10-06T03:51:48.417Z,99875.19
2022-10-06T03:54:21.684Z,99881.34
2022-10-06T03:56:51.180Z,99886.50
2022-10-06T03:59:20.281Z,99892.69
2022-10-06T04:01:49.314Z,99885.94
2022-10-06T04:04:35.275Z,99887.00
2022-10-06T04:07:07.867Z,99887.09
2022-10-06T04:09:36.771Z,99882.22
2022-10-06T04:12:04.628Z,99885.72
2022-10-06T04:14:34.468Z,99890.84
2022-10-06T04:17:02.486Z,99894.25
2022-10-06T04:19:37.962Z,99887.56
2022-10-06T04:22:05.569Z,99886.75
2022-10-06T04:24:34.267Z,99896.22
2022-10-06T04:27:20.820Z,99895.59
2022-10-06T04:30:10.106Z,99895.63
2022-10-06T04:32:38.063Z,99894.88
2022-10-06T04:35:05.974Z,99893.19
2022-10-06T04:37:33.571Z,99901.75
2022-10-06T04:40:01.412Z,99906.16
2022-10-06T04:42:34.913Z,99902.47
2022-10-06T04:45:05.303Z,99907.13
2022-10-06T04:47:33.827Z,99905.53
2022-10-06T04:50:01.463Z,99908.16
2022-10-06T04:52:30.130Z,99909.06
2022-10-06T04:54:57.894Z,99911.75
2022-10-06T04:57:25.396Z,99906.56
2022-10-06T05:00:14.739Z,99902.25
2022-10-06T05:02:44.312Z,99911.13
2022-10-06T05:05:12.020Z,99894.72
2022-10-06T05:07:39.634Z,99900.75
2022-10-06T05:10:07.541Z,99899.34
2022-10-06T05:12:35.727Z,99912.25
2022-10-06T05:15:05.249Z,99908.94
2022-10-06T05:17:32.785Z,99903.06
2022-10-06T05:20:00.407Z,99904.00
2022-10-06T05:22:27.972Z,99894.53
2022-10-06T05:24:55.569Z,99910.19
2022-10-06T05:27:23.198Z,99901.59
2022-10-06T05:29:51.863Z,99909.38
2022-10-06T05:32:19.308Z,99904.09
2022-10-06T05:34:46.885Z,99905.28
2022-10-06T05:37:14.602Z,99905.50
2022-10-06T05:39:42.134Z,99904.75
2022-10-06T05:42:09.546Z,99908.44
2022-10-06T05:44:38.150Z,99909.34
2022-10-06T05:47:09.851Z,99906.66
2022-10-06T05:49:37.496Z,99902.38
2022-10-06T05:52:05.750Z,99915.47
2022-10-06T05:54:37.295Z,99915.22
2022-10-06T05:57:08.901Z,99917.09
2022-10-06T05:59:36.501Z,99900.63
2022-10-06T06:02:05.339Z,99918.72
2022-10-06T06:04:40.207Z,99908.69
2022-10-06T06:07:09.635Z,99913.94
2022-10-06T06:09:38.443Z,99899.84
2022-10-06T06:12:06.358Z,99916.41
2022-10-06T06:15:21.072Z,99900.25
2022-10-06T06:17:55.576Z,99910.16
2022-10-06T06:20:23.130Z,99904.28
2022-10-06T06:22:54.272Z,99914.66
2022-10-06T06:25:27.372Z,99898.34
2022-10-06T06:27:56.293Z,99907.25
2022-10-06T06:30:24.754Z,99907.72
2022-10-06T06:32:57.175Z,99916.28
2022-10-06T06:35:24.767Z,99920.94
2022-10-06T06:37:52.193Z,99925.56
2022-10-06T06:40:20.027Z,99925.38
2022-10-06T06:42:51.605Z,99922.53
2022-10-06T06:45:40.096Z,99923.41
2022-10-06T06:48:24.000Z,99916.56
2022-10-06T06:50:58.570Z,99914.16
2022-10-06T06:53:27.882Z,99917.66
2022-10-06T06:55:58.380Z,99910.88
2022-10-06T06:58:26.573Z,99910.94
2022-10-06T07:00:55.569Z,99920.28
2022-10-06T07:06:12.926Z,99918.47
2022-10-06T07:08:43.988Z,99910.16
2022-10-06T07:11:13.487Z,99912.78
2022-10-06T07:13:42.666Z,99908.56
2022-10-06T07:16:31.398Z,99905.38
2022-10-06T07:19:21.299Z,99904.72
2022-10-06T07:22:17.415Z,99908.63
2022-10-06T07:25:04.040Z,99914.66
2022-10-06T07:27:36.279Z,99918.94
2022-10-06T07:30:05.211Z,99912.75
2022-10-06T07:32:33.142Z,99909.28
2022-10-06T07:35:01.015Z,99911.88
2022-10-06T07:37:30.145Z,99907.59
2022-10-06T07:39:59.764Z,99892.19
2022-10-06T07:42:27.492Z,99895.06
2022-10-06T07:45:13.486Z,99896.09
2022-10-06T07:47:41.980Z,99900.84
2022-10-06T07:50:11.634Z,99895.81
2022-10-06T07:52:39.518Z,99911.41
2022-10-06T07:55:08.092Z,99900.41
2022-10-06T07:57:46.088Z,99898.53
2022-10-06T08:00:16.875Z,99885.59
2022-10-06T08:02:44.440Z,99895.50
2022-10-06T08:05:12.250Z,99895.88
2022-10-06T08:07:40.181Z,99891.06
2022-10-06T08:10:11.291Z,99883.41
2022-10-06T08:12:40.699Z,99881.03
2022-10-06T08:15:09.226Z,99883.34
2022-10-06T08:17:36.945Z,99881.34
2022-10-06T08:20:07.428Z,99884.94
2022-10-06T08:22:36.292Z,99885.16
2022-10-06T08:25:06.558Z,99881.63
2022-10-06T08:27:37.443Z,99889.16
2022-10-06T08:30:05.970Z,99882.97
2022-10-06T08:32:33.974Z,99878.97
2022-10-06T08:35:01.739Z,99885.03
2022-10-06T08:37:30.789Z,99865.16
2022-10-06T08:39:58.254Z,99874.72
2022-10-06T08:42:28.647Z,99889.41
2022-10-06T08:45:00.553Z,99888.41
2022-10-06T08:47:34.142Z,99894.34
2022-10-06T08:50:05.801Z,99895.25
2022-10-06T08:52:42.517Z,99905.81
2022-10-06T08:55:51.385Z,99895.72
2022-10-06T08:58:21.609Z,99896.56
2022-10-06T09:00:49.325Z,99899.09
2022-10-06T09:03:24.043Z,99905.81
2022-10-06T09:06:06.406Z,99898.66
2022-10-06T09:08:51.157Z,99899.50
2022-10-06T09:11:33.540Z,99906.03
2022-10-06T09:14:18.022Z,99905.31
2022-10-06T09:16:51.428Z,99909.38
2022-10-06T09:19:35.379Z,99903.47
2022-10-06T09:22:06.785Z,99898.72
2022-10-06T09:24:46.243Z,99905.53
2022-10-06T09:27:37.537Z,99904.03
2022-10-06T09:30:06.330Z,99903.75
2022-10-06T09:32:34.901Z,99899.31
2022-10-06T09:35:24.783Z,99892.63
2022-10-06T09:38:08.131Z,99891.78
2022-10-06T09:40:39.273Z,99885.00
2022-10-06T09:43:29.615Z,99891.41
2022-10-06T09:46:36.257Z,99897.47
2022-10-06T09:49:23.895Z,99897.47
2022-10-06T09:52:16.143Z,99885.31
2022-10-06T09:54:44.801Z,99886.94
2022-10-06T09:57:16.891Z,99895.94
2022-10-06T09:59:47.043Z,99891.84
2022-10-06T10:02:39.699Z,99887.38
2022-10-06T10:05:21.033Z,99881.59
2022-10-06T10:08:01.778Z,99878.47
2022-10-06T10:10:29.407Z,99858.19
2022-10-06T10:12:58.950Z,99873.09
2022-10-06T10:15:52.507Z,99878.78
2022-10-06T10:18:26.687Z,99887.31
2022-10-06T10:20:59.117Z,99875.69
2022-10-06T10:23:33.522Z,99885.94
2022-10-06T10:26:31.806Z,99876.53
2022-10-06T10:29:15.212Z,99866.47
2022-10-06T10:32:08.120Z,99857.88
2022-10-06T10:34:59.871Z,99863.22
2022-10-06T10:37:33.766Z,99853.13
2022-10-06T10:40:05.517Z,99857.59
2022-10-06T10:42:41.579Z,99860.13
2022-10-06T10:45:19.409Z,99861.97
2022-10-06T10:47:49.346Z,99847.16
2022-10-06T10:50:25.045Z,99857.47
2022-10-06T10:52:58.269Z,99870.94
2022-10-06T10:55:28.595Z,99867.00
2022-10-06T10:57:59.674Z,99861.91
2022-10-06T11:00:30.962Z,99870.75
2022-10-06T11:03:01.203Z,99881.13
2022-10-06T11:05:53.169Z,99877.13
2022-10-06T11:08:38.048Z,99880.00
2022-10-06T11:11:31.090Z,99873.34
2022-10-06T11:14:02.183Z,99879.44
2022-10-06T11:16:37.307Z,99882.56
2022-10-06T11:19:24.411Z,99879.03
2022-10-06T11:22:03.131Z,99881.59
2022-10-06T11:24:50.324Z,99876.72
2022-10-06T11:27:39.195Z,99875.84
2022-10-06T11:30:19.727Z,99879.81
2022-10-06T11:33:17.941Z,99879.72
2022-10-06T11:35:48.616Z,99882.75
2022-10-06T11:38:29.072Z,99880.31
2022-10-06T11:41:04.183Z,99882.13
2022-10-06T11:43:46.123Z,99879.63
2022-10-06T11:46:13.511Z,99875.44
2022-10-06T11:48:42.684Z,99864.91
2022-10-06T11:51:25.130Z,99860.59
2022-10-06T11:53:53.198Z,99860.38
2022-10-06T11:56:20.556Z,99862.97
2022-10-06T11:58:50.823Z,99865.47
2022-10-06T12:01:36.487Z,99867.25
2022-10-06T12:04:09.909Z,99867.19
2022-10-06T12:06:57.552Z,99865.00
2022-10-06T12:09:31.798Z,99869.97
2022-10-06T12:12:00.286Z,99870.56
2022-10-06T12:16:32.369Z,99873.13
2022-10-06T12:17:41.114Z,99862.91
2022-10-06T12:20:17.706Z,99869.13
2022-10-06T12:22:51.350Z,99864.06
2022-10-06T12:25:28.036Z,99867.31
2022-10-06T12:28:16.676Z,99861.28
2022-10-06T12:31:05.077Z,99869.59
2022-10-06T12:33:43.191Z,99858.38
2022-10-06T12:36:23.567Z,99862.63
2022-10-06T12:39:23.675Z,99848.97
2022-10-06T12:42:07.268Z,99844.66
2022-10-06T12:44:40.594Z,99838.72
2022-10-06T12:47:16.999Z,99834.28
2022-10-06T12:50:02.125Z,99835.41
2022-10-06T12:52:51.034Z,99828.44
2022-10-06T12:55:32.630Z,99837.75
2022-10-06T12:58:01.332Z,99834.09
2022-10-06T13:00:42.497Z,99835.88
2022-10-06T13:03:24.596Z,99842.75
2022-10-06T13:05:56.017Z,99848.72
2022-10-06T13:08:26.663Z,99848.88
2022-10-06T13:11:26.498Z,99841.97
2022-10-06T13:13:58.597Z,99848.47
2022-10-06T13:16:29.241Z,99851.09
2022-10-06T13:18:59.102Z,99852.69
2022-10-06T13:21:30.261Z,99847.34
2022-10-06T13:23:57.894Z,99852.78
2022-10-06T13:26:31.502Z,99847.53
2022-10-06T13:29:00.406Z,99837.69
2022-10-06T13:31:35.302Z,99836.56
2022-10-06T13:34:04.136Z,99842.75
2022-10-06T13:36:35.721Z,99842.63
2022-10-06T13:39:11.882Z,99839.97
2022-10-06T13:41:52.517Z,99829.53
2022-10-06T13:44:38.206Z,99831.88
2022-10-06T13:47:22.684Z,99841.50
2022-10-06T13:49:50.213Z,99844.94
2022-10-06T13:52:33.241Z,99849.44
2022-10-06T13:55:03.027Z,99843.94
2022-10-06T13:57:38.213Z,99853.63
2022-10-06T14:00:14.489Z,99847.41
2022-10-06T14:02:43.901Z,99856.00
2022-10-06T14:05:27.029Z,99836.84
2022-10-06T14:07:57.972Z,99856.16
2022-10-06T14:10:31.484Z,99853.34
2022-10-06T14:13:01.601Z,99855.09
2022-10-06T14:15:33.794Z,99856.03
2022-10-06T14:18:04.711Z,99854.09
2022-10-06T14:20:47.113Z,99850.75
2022-10-06T14:23:52.438Z,99863.69
2022-10-06T14:26:25.547Z,99852.13
2022-10-06T14:28:54.119Z,99842.47
2022-10-06T14:31:24.374Z,99834.63
2022-10-06T14:33:53.671Z,99838.13
2022-10-06T14:36:21.434Z,99850.13
2022-10-06T14:38:51.046Z,99852.56
2022-10-06T14:41:20.164Z,99850.75
2022-10-06T14:44:02.959Z,99857.91
2022-10-06T14:46:31.204Z,99849.25
2022-10-06T14:48:59.782Z,99860.34
2022-10-06T14:51:29.310Z,99853.34
2022-10-06T14:53:59.511Z,99867.97
2022-10-06T14:56:29.451Z,99870.56
2022-10-06T14:58:57.961Z,99863.50
2022-10-06T15:01:25.910Z,99866.09
2022-10-06T15:03:55.389Z,99865.25
2022-10-06T15:06:41.287Z,99857.31
2022-10-06T15:09:09.295Z,99852.06
2022-10-06T15:11:37.729Z,99857.13
2022-10-06T15:14:06.655Z,99864.13
2022-10-06T15:16:34.851Z,99857.00
2022-10-06T15:19:06.002Z,99856.38
2022-10-06T15:21:34.349Z,99845.94
2022-10-06T15:24:05.252Z,99848.63
2022-10-06T15:26:51.341Z,99847.75
2022-10-06T15:29:18.970Z,99854.72
2022-10-06T15:31:52.256Z,99857.31
2022-10-06T15:34:25.430Z,99856.44
2022-10-06T15:36:54.381Z,99859.13
2022-10-06T15:39:24.850Z,99857.41
2022-10-06T15:41:53.180Z,99855.59
2022-10-06T15:44:21.733Z,99861.56
2022-10-06T15:46:50.742Z,99860.53
2022-10-06T15:49:21.091Z,99850.22
2022-10-06T15:52:03.038Z,99853.88
2022-10-06T15:54:39.642Z,99851.47
2022-10-06T15:57:10.383Z,99845.38
2022-10-06T15:59:40.207Z,99844.41
2022-10-06T16:02:16.155Z,99854.88
2022-10-06T16:05:06.402Z,99848.00
2022-10-06T16:07:34.981Z,99840.97
2022-10-06T16:10:02.434Z,99846.22
2022-10-06T16:12:30.287Z,99835.69
2022-10-06T16:14:57.682Z,99845.19
2022-10-06T16:17:25.134Z,99841.66
2022-10-06T16:19:52.548Z,99838.16
2022-10-06T16:22:20.051Z,99842.50
2022-10-06T16:24:47.583Z,99823.59
2022-10-06T16:27:16.014Z,99826.72
2022-10-06T16:29:45.823Z,99829.72
2022-10-06T16:32:13.201Z,99821.66
2022-10-06T16:34:43.530Z,99825.06
2022-10-06T16:37:11.012Z,99833.72
2022-10-06T16:39:38.555Z,99833.66
2022-10-06T16:42:05.990Z,99832.84
2022-10-06T16:44:33.460Z,99828.66
2022-10-06T16:47:03.575Z,99835.63
2022-10-06T16:49:31.161Z,99834.72
2022-10-06T16:51:58.619Z,99829.50
2022-10-06T16:54:26.212Z,99830.31
2022-10-06T16:56:58.226Z,99830.38
2022-10-06T16:59:29.573Z,99831.19
2022-10-06T17:01:57.066Z,99820.97
2022-10-06T17:04:25.619Z,99819.06
2022-10-06T17:06:55.415Z,99827.75
2022-10-06T17:09:28.400Z,99827.78
2022-10-06T17:12:01.094Z,99810.47
2022-10-06T17:14:30.989Z,99832.00
2022-10-06T17:16:58.891Z,99821.63
2022-10-06T17:19:29.465Z,99823.47
2022-10-06T17:21:59.421Z,99829.72
2022-10-06T17:24:29.086Z,99818.25
2022-10-06T17:26:57.886Z,99808.75
2022-10-06T17:29:26.186Z,99823.53
2022-10-06T17:31:59.692Z,99817.44
2022-10-06T17:34:33.454Z,99815.72
2022-10-06T17:37:02.621Z,99799.88
2022-10-06T17:39:30.573Z,99792.13
2022-10-06T17:41:58.115Z,99793.88
2022-10-06T17:44:29.359Z,99798.34
2022-10-06T17:46:58.779Z,99788.03
2022-10-06T17:49:26.931Z,99795.75
2022-10-06T17:51:56.299Z,99776.84
2022-10-06T17:54:25.523Z,99794.06
2022-10-06T17:56:56.012Z,99773.94
2022-10-06T17:59:28.538Z,99780.13
2022-10-06T18:02:01.607Z,99780.94
2022-10-06T18:04:29.605Z,99778.19
2022-10-06T18:07:00.234Z,99761.09
2022-10-06T18:09:28.599Z,99771.41
2022-10-06T18:11:57.757Z,99769.66
2022-10-06T18:14:28.369Z,99762.50
2022-10-06T18:17:00.912Z,99763.38
2022-10-06T18:19:31.128Z,99758.47
2022-10-06T18:22:11.690Z,99763.56
2022-10-06T18:24:40.187Z,99768.69
2022-10-06T18:27:08.588Z,99748.94
2022-10-06T18:29:38.258Z,99733.41
2022-10-06T18:37:47.885Z,99744.34
2022-10-06T18:40:15.534Z,99743.28
2022-10-06T18:42:43.021Z,99745.72
2022-10-06T18:45:32.243Z,99730.66
2022-10-06T18:48:20.268Z,99742.69
2022-10-06T18:50:59.081Z,99729.72
2022-10-06T18:53:26.599Z,99738.97
2022-10-06T18:55:53.977Z,99743.88
2022-10-06T18:58:21.419Z,99748.28
2022-10-06T19:00:48.988Z,99750.06
2022-10-06T19:03:16.442Z,99750.34
2022-10-06T19:05:53.288Z,99740.34
2022-10-06T19:08:20.815Z,99740.22
2022-10-06T19:11:11.276Z,99734.09
2022-10-06T19:13:38.749Z,99735.09
2022-10-06T19:16:06.816Z,99721.28
2022-10-06T19:18:37.153Z,99742.16
2022-10-06T19:21:09.327Z,99735.09
2022-10-06T19:23:38.427Z,99741.09
2022-10-06T19:26:08.785Z,99727.28
2022-10-06T19:28:37.639Z,99730.66
2022-10-06T19:31:15.015Z,99731.56
2022-10-06T19:33:43.345Z,99729.25
2022-10-06T19:36:10.663Z,99738.22
2022-10-06T19:38:38.779Z,99720.94
2022-10-06T19:41:25.056Z,99730.66
2022-10-06T19:43:53.978Z,99729.75
2022-10-06T19:46:21.484Z,99737.63
2022-10-06T19:48:54.427Z,99727.25
2022-10-06T19:51:25.180Z,99721.38
2022-10-06T19:53:52.664Z,99730.94
2022-10-06T19:56:25.289Z,99729.38
2022-10-06T19:58:52.921Z,99726.91
2022-10-06T20:01:20.587Z,99707.84
2022-10-06T20:03:48.263Z,99730.50
2022-10-06T20:06:16.813Z,99722.78
2022-10-06T20:08:44.246Z,99717.63
2022-10-06T20:11:14.726Z,99715.09
2022-10-06T20:13:44.694Z,99715.06
2022-10-06T20:16:18.727Z,99721.09
2022-10-06T20:18:48.968Z,99710.59
2022-10-06T20:21:31.114Z,99719.44
2022-10-06T20:24:07.480Z,99718.53
2022-10-06T20:26:39.882Z,99713.41
2022-10-06T20:29:10.367Z,99722.94
2022-10-06T20:31:42.911Z,99713.50
2022-10-06T20:34:14.099Z,99723.00
2022-10-06T20:36:42.322Z,99726.66
2022-10-06T20:39:35.518Z,99731.84
2022-10-06T20:42:03.898Z,99729.25
2022-10-06T20:44:31.375Z,99722.31
2022-10-06T20:46:58.936Z,99722.22
2022-10-06T20:49:26.544Z,99718.00
2022-10-06T20:51:54.086Z,99723.19
2022-10-06T20:54:24.007Z,99720.66
2022-10-06T20:56:53.205Z,99717.41
2022-10-06T20:59:22.735Z,99712.09
2022-10-06T21:01:53.801Z,99710.38
2022-10-06T21:04:21.825Z,99723.41
2022-10-06T21:06:49.337Z,99724.31
2022-10-06T21:09:18.996Z,99721.84
2022-10-06T21:11:47.958Z,99717.59
2022-10-06T21:14:16.025Z,99714.13
2022-10-06T21:16:45.746Z,99715.94
2022-10-06T21:19:18.223Z,99722.75
2022-10-06T21:21:50.810Z,99721.88
2022-10-06T21:24:18.794Z,99725.38
2022-10-06T21:26:46.593Z,99727.97
2022-10-06T21:29:15.531Z,99728.97
2022-10-06T21:31:45.014Z,99724.72
2022-10-06T21:34:14.523Z,99723.78
2022-10-06T21:36:44.320Z,99729.88
2022-10-06T21:39:12.872Z,99718.53
2022-10-06T21:41:42.538Z,99732.16
2022-10-06T21:44:11.245Z,99732.09
2022-10-06T21:46:50.191Z,99731.25
2022-10-06T21:49:22.506Z,99732.94
2022-10-06T21:51:52.821Z,99732.75
2022-10-06T21:54:22.073Z,99738.88
2022-10-06T21:56:52.514Z,99734.56
2022-10-06T21:59:22.766Z,99725.06
2022-10-06T22:01:50.739Z,99723.41
2022-10-06T22:04:18.366Z,99743.25
2022-10-06T22:06:50.224Z,99729.41
2022-10-06T22:09:19.797Z,99738.00
2022-10-06T22:11:47.814Z,99733.81
2022-10-06T22:14:17.494Z,99737.22
2022-10-06T22:16:45.506Z,99724.25
2022-10-06T22:19:14.434Z,99745.84
2022-10-06T22:21:44.502Z,99744.00
2022-10-06T22:24:14.801Z,99748.38
2022-10-06T22:26:43.571Z,99751.66
2022-10-06T22:29:13.365Z,99754.31
2022-10-06T22:31:42.592Z,99755.19
2022-10-06T22:34:12.205Z,99757.81
2022-10-06T22:36:40.046Z,99752.69
2022-10-06T22:39:08.342Z,99772.56
2022-10-06T22:41:35.924Z,99772.56
2022-10-06T22:44:03.931Z,99769.13
2022-10-06T22:46:33.809Z,99762.97
2022-10-06T22:49:01.863Z,99775.13
2022-10-06T22:51:29.382Z,99774.25
2022-10-06T22:53:59.224Z,99765.66
2022-10-06T22:56:28.485Z,99759.66
2022-10-06T22:58:59.862Z,99772.56
2022-10-06T23:01:29.622Z,99765.59
2022-10-06T23:03:57.757Z,99769.91
2022-10-06T23:06:25.777Z,99764.63
2022-10-06T23:08:53.214Z,99765.53
2022-10-06T23:11:22.453Z,99764.50
2022-10-06T23:13:50.671Z,99762.75
2022-10-06T23:16:21.858Z,99761.84
2022-10-06T23:18:49.629Z,99760.88
2022-10-06T23:21:24.275Z,99767.84
2022-10-06T23:23:59.233Z,99773.91
2022-10-06T23:26:27.008Z,99776.44
2022-10-06T23:28:56.982Z,99780.78
2022-10-06T23:31:25.103Z,99772.22
2022-10-06T23:33:56.533Z,99773.69
2022-10-06T23:36:24.373Z,99777.09
2022-10-06T23:38:51.851Z,99778.78
2022-10-06T23:41:19.520Z,99768.53
2022-10-06T23:43:49.368Z,99782.31
2022-10-06T23:46:16.927Z,99775.25
2022-10-06T23:48:45.760Z,99785.69
2022-10-06T23:51:15.546Z,99794.94
2022-10-06T23:53:43.527Z,99800.94
2022-10-06T23:56:11.471Z,99799.06
2022-10-06T23:58:39.410Z,99800.81
